createdAt,value
2017-08-14T00:01:18.950Z,56.80
2017-08-14T00:03:46.478Z,56.20
2017-08-14T00:06:13.982Z,56.30
2017-08-14T00:08:41.504Z,56.20
2017-08-14T00:11:09.033Z,56.20
2017-08-14T00:13:36.545Z,56.10
2017-08-14T00:16:04.064Z,56.20
2017-08-14T00:18:31.573Z,56.20
2017-08-14T00:20:59.109Z,56.20
2017-08-14T00:23:26.622Z,56.30
2017-08-14T00:25:54.109Z,56.40
2017-08-14T00:28:21.638Z,56.60
2017-08-14T00:30:49.140Z,56.60
2017-08-14T00:33:16.680Z,56.60
2017-08-14T00:35:44.195Z,56.70
2017-08-14T00:38:11.712Z,56.80
2017-08-14T00:40:39.279Z,56.90
2017-08-14T00:43:06.811Z,57.10
2017-08-14T00:45:34.378Z,57.10
2017-08-14T00:48:01.904Z,57.20
2017-08-14T00:50:29.395Z,57.20
2017-08-14T00:52:56.944Z,57.20
2017-08-14T00:55:24.459Z,57.20
2017-08-14T00:57:51.954Z,57.20
2017-08-14T01:00:19.521Z,57.30
2017-08-14T01:02:47.015Z,57.60
2017-08-14T01:05:14.545Z,57.60
2017-08-14T01:07:42.125Z,57.60
2017-08-14T01:10:09.613Z,57.60
2017-08-14T01:12:37.162Z,57.60
2017-08-14T01:15:04.732Z,57.60
2017-08-14T01:17:32.227Z,57.50
2017-08-14T01:19:59.764Z,57.60
2017-08-14T01:22:27.261Z,57.60
2017-08-14T01:24:54.805Z,57.70
2017-08-14T01:27:22.303Z,57.70
2017-08-14T01:29:49.781Z,57.80
2017-08-14T01:32:17.665Z,57.90
2017-08-14T01:34:45.155Z,57.90
2017-08-14T01:37:12.659Z,58.10
2017-08-14T01:39:40.574Z,58.10
2017-08-14T01:42:08.063Z,58.10
2017-08-14T01:44:35.562Z,58.00
2017-08-14T01:47:03.126Z,58.10
2017-08-14T01:49:30.635Z,58.00
2017-08-14T01:51:58.162Z,58.10
2017-08-14T01:54:25.695Z,58.10
2017-08-14T01:56:53.278Z,58.20
2017-08-14T01:59:20.774Z,58.20
2017-08-14T02:01:48.287Z,58.20
2017-08-14T02:04:15.823Z,58.40
2017-08-14T02:06:43.327Z,58.70
2017-08-14T02:09:10.893Z,58.90
2017-08-14T02:11:38.406Z,59.00
2017-08-14T02:14:05.924Z,59.30
2017-08-14T02:16:33.474Z,59.50
2017-08-14T02:19:00.968Z,59.50
2017-08-14T02:21:28.493Z,59.50
2017-08-14T02:23:56.000Z,59.40
2017-08-14T02:26:23.514Z,59.20
2017-08-14T02:28:51.067Z,59.30
2017-08-14T02:31:18.635Z,59.20
2017-08-14T02:33:46.135Z,59.30
2017-08-14T02:36:14.306Z,59.40
2017-08-14T02:38:41.967Z,59.30
2017-08-14T02:41:09.464Z,59.10
2017-08-14T02:43:36.965Z,59.00
2017-08-14T02:46:04.488Z,59.00
2017-08-14T02:48:32.026Z,58.80
2017-08-14T02:50:59.557Z,58.90
2017-08-14T02:53:27.070Z,59.10
2017-08-14T02:55:54.612Z,59.20
2017-08-14T02:58:22.114Z,59.20
2017-08-14T03:00:49.658Z,59.20
2017-08-14T03:03:17.152Z,59.00
2017-08-14T03:05:44.680Z,59.00
2017-08-14T03:08:12.250Z,58.80
2017-08-14T03:10:39.759Z,58.90
2017-08-14T03:13:07.284Z,59.00
2017-08-14T03:15:34.803Z,59.10
2017-08-14T03:18:02.352Z,59.10
2017-08-14T03:20:29.899Z,59.10
2017-08-14T03:22:57.396Z,59.30
2017-08-14T03:25:24.973Z,59.20
2017-08-14T03:27:52.479Z,59.30
2017-08-14T03:30:19.977Z,59.20
2017-08-14T03:32:47.503Z,59.10
2017-08-14T03:35:15.027Z,59.10
2017-08-14T03:37:42.616Z,59.00
2017-08-14T03:40:10.111Z,58.80
2017-08-14T03:42:37.641Z,58.90
2017-08-14T03:45:05.252Z,58.90
2017-08-14T03:47:32.753Z,58.80
2017-08-14T03:50:00.252Z,58.80
2017-08-14T03:52:27.777Z,58.70
2017-08-14T03:54:55.281Z,58.70
2017-08-14T03:57:22.834Z,58.70
2017-08-14T03:59:50.356Z,58.70
2017-08-14T04:02:17.920Z,58.70
2017-08-14T04:04:45.446Z,58.80
2017-08-14T04:07:12.939Z,58.90
2017-08-14T04:09:40.455Z,59.00
2017-08-14T04:12:07.959Z,59.00
2017-08-14T04:14:35.538Z,59.00
2017-08-14T04:17:03.057Z,58.90
2017-08-14T04:19:30.633Z,58.80
2017-08-14T04:21:58.124Z,59.00
2017-08-14T04:24:25.624Z,59.20
2017-08-14T04:26:53.147Z,59.30
2017-08-14T04:29:20.661Z,59.60
2017-08-14T04:31:48.211Z,59.70
2017-08-14T04:34:15.753Z,59.70
2017-08-14T04:36:43.271Z,59.70
2017-08-14T04:39:10.770Z,59.70
2017-08-14T04:41:38.301Z,59.70
2017-08-14T04:44:05.832Z,59.70
2017-08-14T04:46:33.392Z,59.70
2017-08-14T04:49:00.875Z,59.80
2017-08-14T04:51:28.372Z,59.70
2017-08-14T04:53:55.903Z,59.40
2017-08-14T04:56:23.495Z,59.40
2017-08-14T04:58:51.434Z,59.30
2017-08-14T05:01:18.934Z,59.20
2017-08-14T05:03:46.588Z,59.40
2017-08-14T05:06:14.184Z,59.20
2017-08-14T05:08:42.044Z,59.30
2017-08-14T05:11:09.615Z,59.00
2017-08-14T05:13:37.123Z,59.00
2017-08-14T05:16:08.620Z,58.90
2017-08-14T05:18:36.132Z,58.80
2017-08-14T05:21:04.480Z,58.70
2017-08-14T05:23:32.027Z,58.70
2017-08-14T05:25:59.555Z,58.80
2017-08-14T05:28:27.066Z,59.10
2017-08-14T05:30:54.629Z,59.00
2017-08-14T05:33:22.189Z,59.10
2017-08-14T05:35:49.724Z,59.20
2017-08-14T05:38:17.934Z,59.20
2017-08-14T05:40:46.298Z,59.00
2017-08-14T05:43:13.798Z,59.00
2017-08-14T05:45:41.319Z,59.00
2017-08-14T05:48:08.925Z,58.90
2017-08-14T05:50:36.429Z,58.90
2017-08-14T05:53:03.932Z,59.00
2017-08-14T05:55:31.458Z,58.70
2017-08-14T05:57:58.942Z,58.60
2017-08-14T06:00:26.479Z,58.60
2017-08-14T06:02:54.067Z,58.60
2017-08-14T06:05:21.601Z,58.50
2017-08-14T06:07:49.153Z,58.40
2017-08-14T06:10:17.034Z,58.40
2017-08-14T06:12:44.543Z,58.40
2017-08-14T06:15:12.039Z,58.40
2017-08-14T06:17:39.613Z,58.20
2017-08-14T06:20:07.162Z,58.20
2017-08-14T06:22:35.033Z,58.30
2017-08-14T06:25:02.673Z,58.00
2017-08-14T06:27:30.225Z,58.10
2017-08-14T06:29:57.836Z,57.90
2017-08-14T06:32:25.372Z,57.80
2017-08-14T06:34:52.940Z,57.50
2017-08-14T06:37:20.456Z,57.30
2017-08-14T06:39:48.018Z,57.20
2017-08-14T06:42:16.497Z,57.30
2017-08-14T06:44:46.926Z,57.50
2017-08-14T06:47:15.246Z,57.60
2017-08-14T06:49:42.731Z,57.80
2017-08-14T06:52:10.272Z,57.90
2017-08-14T06:54:37.775Z,57.80
2017-08-14T06:57:06.188Z,57.60
2017-08-14T06:59:33.709Z,57.50
2017-08-14T07:02:01.571Z,57.60
2017-08-14T07:04:29.094Z,57.50
2017-08-14T07:06:56.605Z,57.70
2017-08-14T07:09:24.163Z,57.80
2017-08-14T07:11:51.712Z,57.90
2017-08-14T07:14:19.274Z,58.00
2017-08-14T07:16:46.758Z,58.00
2017-08-14T07:19:14.323Z,58.10
2017-08-14T07:21:41.844Z,58.10
2017-08-14T07:24:09.350Z,57.90
2017-08-14T07:26:36.892Z,57.80
2017-08-14T07:29:04.384Z,57.70
2017-08-14T07:31:31.931Z,57.60
2017-08-14T07:33:59.451Z,57.40
2017-08-14T07:36:27.045Z,57.50
2017-08-14T07:38:54.544Z,57.40
2017-08-14T07:41:22.068Z,56.90
2017-08-14T07:43:49.659Z,56.90
2017-08-14T07:46:17.169Z,56.80
2017-08-14T07:48:44.725Z,56.80
2017-08-14T07:51:12.239Z,56.50
2017-08-14T07:53:39.771Z,56.50
2017-08-14T07:56:07.267Z,56.70
2017-08-14T07:58:34.866Z,56.60
2017-08-14T08:01:02.404Z,56.50
2017-08-14T08:03:31.721Z,56.40
2017-08-14T08:05:59.270Z,56.50
2017-08-14T08:08:26.792Z,56.60
2017-08-14T08:10:54.362Z,56.70
2017-08-14T08:13:21.920Z,56.70
2017-08-14T08:15:49.459Z,56.50
2017-08-14T08:18:16.997Z,56.30
2017-08-14T08:20:45.627Z,56.30
2017-08-14T08:23:13.268Z,55.50
2017-08-14T08:25:40.806Z,55.40
2017-08-14T08:28:08.351Z,55.30
2017-08-14T08:30:35.923Z,55.20
2017-08-14T08:33:03.539Z,55.10
2017-08-14T08:35:31.031Z,55.00
2017-08-14T08:37:58.570Z,54.90
2017-08-14T08:40:26.092Z,54.70
2017-08-14T08:42:53.623Z,54.70
2017-08-14T08:45:21.503Z,54.70
2017-08-14T08:47:49.019Z,54.50
2017-08-14T08:50:16.542Z,54.40
2017-08-14T08:52:44.112Z,54.20
2017-08-14T08:55:11.639Z,54.10
2017-08-14T08:57:39.174Z,53.80
2017-08-14T09:00:06.681Z,53.50
2017-08-14T09:02:34.214Z,53.40
2017-08-14T09:05:02.058Z,53.40
2017-08-14T09:07:29.711Z,53.00
2017-08-14T09:09:57.228Z,52.50
2017-08-14T09:12:24.752Z,52.30
2017-08-14T09:14:52.309Z,52.40
2017-08-14T09:17:19.863Z,52.20
2017-08-14T09:19:47.422Z,52.00
2017-08-14T09:22:14.954Z,52.00
2017-08-14T09:24:43.486Z,51.50
2017-08-14T09:27:11.029Z,50.70
2017-08-14T09:29:38.557Z,50.70
2017-08-14T09:32:06.103Z,50.90
2017-08-14T09:34:33.645Z,51.20
2017-08-14T09:37:01.155Z,51.40
2017-08-14T09:39:28.688Z,51.40
2017-08-14T09:41:56.174Z,51.50
2017-08-14T09:44:23.719Z,51.40
2017-08-14T09:46:51.222Z,51.40
2017-08-14T09:49:19.126Z,51.20
2017-08-14T09:51:46.629Z,50.90
2017-08-14T09:54:14.744Z,50.40
2017-08-14T09:56:42.357Z,50.20
2017-08-14T09:59:09.898Z,50.10
2017-08-14T10:01:37.387Z,50.00
2017-08-14T10:04:04.890Z,50.00
2017-08-14T10:06:32.436Z,50.00
2017-08-14T10:08:59.992Z,49.10
2017-08-14T10:11:27.502Z,49.40
2017-08-14T10:13:55.008Z,49.10
2017-08-14T10:16:22.631Z,49.70
2017-08-14T10:18:50.133Z,49.40
2017-08-14T10:21:17.874Z,48.80
2017-08-14T10:23:45.434Z,49.60
2017-08-14T10:26:12.958Z,49.10
2017-08-14T10:28:40.489Z,49.30
2017-08-14T10:31:08.005Z,48.10
2017-08-14T10:33:35.512Z,48.10
2017-08-14T10:36:03.103Z,47.00
2017-08-14T10:38:30.621Z,46.40
2017-08-14T10:40:58.173Z,46.80
2017-08-14T10:43:25.720Z,47.00
2017-08-14T10:45:53.608Z,46.70
2017-08-14T10:48:21.145Z,46.60
2017-08-14T10:50:48.650Z,46.80
2017-08-14T10:53:16.227Z,46.80
2017-08-14T10:55:43.739Z,46.80
2017-08-14T10:58:11.341Z,46.70
2017-08-14T11:00:38.999Z,46.90
2017-08-14T11:03:06.533Z,47.20
2017-08-14T11:05:34.071Z,47.20
2017-08-14T11:08:01.653Z,46.70
2017-08-14T11:10:29.179Z,45.90
2017-08-14T11:12:56.729Z,45.90
2017-08-14T11:15:24.296Z,45.90
2017-08-14T11:17:51.815Z,45.60
2017-08-14T11:20:19.324Z,45.10
2017-08-14T11:22:46.902Z,45.30
2017-08-14T11:25:14.396Z,45.10
2017-08-14T11:27:41.939Z,45.30
2017-08-14T11:30:09.513Z,45.20
2017-08-14T11:32:37.008Z,44.20
2017-08-14T11:35:04.590Z,44.20
2017-08-14T11:37:32.189Z,44.40
2017-08-14T11:39:59.705Z,45.20
2017-08-14T11:42:27.234Z,45.50
2017-08-14T11:44:54.762Z,45.10
2017-08-14T11:47:22.290Z,44.90
2017-08-14T11:49:49.798Z,44.70
2017-08-14T11:52:17.351Z,44.80
2017-08-14T11:54:44.890Z,44.40
2017-08-14T11:57:12.439Z,44.70
2017-08-14T11:59:39.942Z,44.20
2017-08-14T12:02:07.486Z,43.80
2017-08-14T12:04:35.089Z,43.30
2017-08-14T12:07:02.622Z,42.00
2017-08-14T12:09:30.133Z,41.80
2017-08-14T12:11:57.742Z,41.70
2017-08-14T12:14:25.560Z,41.40
2017-08-14T12:16:53.089Z,41.40
2017-08-14T12:19:20.596Z,41.10
2017-08-14T12:21:48.155Z,40.30
2017-08-14T12:24:15.824Z,38.90
2017-08-14T12:26:43.452Z,38.20
2017-08-14T12:29:10.965Z,36.60
2017-08-14T12:31:38.483Z,36.40
2017-08-14T12:34:06.016Z,36.50
2017-08-14T12:36:33.547Z,36.90
2017-08-14T12:39:01.094Z,37.20
2017-08-14T12:41:28.640Z,37.40
2017-08-14T12:43:56.189Z,36.80
2017-08-14T12:46:23.724Z,37.00
2017-08-14T12:48:51.228Z,37.20
2017-08-14T12:51:18.826Z,37.10
2017-08-14T12:53:46.323Z,37.70
2017-08-14T12:56:13.844Z,37.90
2017-08-14T12:58:41.403Z,38.10
2017-08-14T13:01:08.958Z,38.20
2017-08-14T13:03:36.447Z,37.90
2017-08-14T13:06:04.020Z,37.90
2017-08-14T13:08:31.578Z,38.00
2017-08-14T13:10:59.070Z,37.90
2017-08-14T13:13:26.605Z,37.50
2017-08-14T13:15:54.090Z,37.40
2017-08-14T13:18:21.655Z,37.10
2017-08-14T13:20:49.188Z,36.50
2017-08-14T13:23:16.818Z,36.70
2017-08-14T13:25:44.325Z,36.90
2017-08-14T13:28:11.834Z,37.50
2017-08-14T13:30:39.370Z,37.10
2017-08-14T13:33:06.880Z,37.20
2017-08-14T13:35:34.404Z,37.10
2017-08-14T13:38:01.975Z,36.60
2017-08-14T13:40:29.504Z,36.30
2017-08-14T13:42:57.035Z,36.10
2017-08-14T13:45:24.535Z,36.00
2017-08-14T13:47:52.126Z,35.70
2017-08-14T13:50:19.654Z,35.60
2017-08-14T13:52:47.201Z,35.70
2017-08-14T13:55:15.064Z,35.90
2017-08-14T13:57:42.622Z,35.50
2017-08-14T14:00:10.165Z,35.70
2017-08-14T14:02:37.803Z,35.70
2017-08-14T14:05:05.540Z,35.80
2017-08-14T14:07:33.081Z,35.70
2017-08-14T14:10:00.589Z,35.90
2017-08-14T14:12:28.090Z,35.80
2017-08-14T14:14:55.644Z,35.50
2017-08-14T14:17:23.150Z,35.50
2017-08-14T14:19:50.695Z,35.60
2017-08-14T14:22:18.251Z,35.30
2017-08-14T14:24:45.743Z,35.10
2017-08-14T14:27:13.335Z,34.60
2017-08-14T14:29:40.847Z,33.90
2017-08-14T14:32:08.352Z,33.80
2017-08-14T14:34:35.904Z,33.70
2017-08-14T14:37:03.427Z,33.50
2017-08-14T14:39:30.932Z,33.10
2017-08-14T14:41:58.473Z,33.20
2017-08-14T14:44:25.987Z,32.80
2017-08-14T14:46:53.541Z,32.40
2017-08-14T14:49:21.083Z,32.40
2017-08-14T14:51:48.641Z,32.20
2017-08-14T14:54:16.131Z,31.80
2017-08-14T14:56:43.655Z,31.40
2017-08-14T14:59:11.176Z,31.60
2017-08-14T15:01:38.735Z,31.60
2017-08-14T15:04:06.249Z,31.80
2017-08-14T15:06:33.796Z,31.90
2017-08-14T15:09:01.368Z,32.20
2017-08-14T15:11:28.940Z,31.90
2017-08-14T15:13:56.490Z,32.00
2017-08-14T15:16:24.027Z,32.40
2017-08-14T15:18:51.547Z,32.40
2017-08-14T15:21:19.051Z,32.70
2017-08-14T15:23:46.600Z,33.10
2017-08-14T15:26:14.136Z,33.20
2017-08-14T15:28:41.687Z,33.80
2017-08-14T15:31:09.203Z,34.00
2017-08-14T15:33:36.793Z,34.00
2017-08-14T15:36:04.292Z,34.30
2017-08-14T15:38:31.796Z,34.20
2017-08-14T15:40:59.365Z,34.50
2017-08-14T15:43:26.906Z,33.90
2017-08-14T15:45:54.459Z,33.80
2017-08-14T15:48:22.025Z,33.80
2017-08-14T15:50:49.585Z,33.80
2017-08-14T15:53:17.411Z,33.40
2017-08-14T15:55:44.984Z,32.70
2017-08-14T15:58:12.543Z,32.90
2017-08-14T16:00:40.091Z,32.50
2017-08-14T16:03:07.581Z,33.30
2017-08-14T16:05:35.133Z,32.40
2017-08-14T16:08:02.701Z,32.00
2017-08-14T16:10:30.223Z,31.90
2017-08-14T16:12:57.753Z,32.40
2017-08-14T16:15:25.270Z,32.20
2017-08-14T16:17:53.459Z,31.90
2017-08-14T16:20:20.961Z,31.80
2017-08-14T16:22:48.461Z,32.00
2017-08-14T16:25:16.111Z,32.00
2017-08-14T16:27:43.619Z,32.00
2017-08-14T16:30:11.132Z,32.40
2017-08-14T16:32:38.693Z,32.50
2017-08-14T16:35:06.650Z,32.60
2017-08-14T16:37:34.187Z,32.70
2017-08-14T16:40:01.676Z,32.90
2017-08-14T16:42:29.214Z,33.20
2017-08-14T16:44:56.712Z,33.50
2017-08-14T16:47:24.258Z,33.80
2017-08-14T16:49:51.808Z,33.90
2017-08-14T16:52:19.341Z,33.90
2017-08-14T16:54:46.936Z,33.70
2017-08-14T16:57:14.525Z,33.90
2017-08-14T16:59:42.090Z,34.10
2017-08-14T17:02:09.614Z,34.10
2017-08-14T17:04:37.197Z,33.80
2017-08-14T17:07:04.744Z,34.20
2017-08-14T17:09:32.263Z,34.30
2017-08-14T17:11:59.814Z,34.30
2017-08-14T17:14:27.300Z,34.00
2017-08-14T17:16:54.842Z,34.00
2017-08-14T17:19:22.338Z,33.90
2017-08-14T17:21:49.833Z,34.00
2017-08-14T17:24:17.372Z,34.10
2017-08-14T17:26:44.944Z,34.20
2017-08-14T17:29:12.436Z,34.20
2017-08-14T17:31:39.997Z,34.00
2017-08-14T17:34:07.502Z,34.10
2017-08-14T17:36:35.038Z,34.40
2017-08-14T17:39:02.637Z,34.50
2017-08-14T17:41:30.151Z,34.70
2017-08-14T17:43:57.712Z,34.90
2017-08-14T17:46:25.267Z,35.00
2017-08-14T17:48:52.796Z,35.00
2017-08-14T17:51:20.359Z,34.90
2017-08-14T17:53:47.947Z,35.10
2017-08-14T17:56:16.682Z,35.30
2017-08-14T17:58:44.197Z,35.30
2017-08-14T18:01:11.843Z,35.40
2017-08-14T18:03:39.392Z,35.70
2017-08-14T18:06:06.900Z,35.90
2017-08-14T18:08:34.449Z,36.10
2017-08-14T18:11:01.965Z,36.20
2017-08-14T18:13:29.511Z,36.20
2017-08-14T18:15:57.060Z,36.30
2017-08-14T18:18:24.564Z,36.40
2017-08-14T18:20:52.107Z,36.40
2017-08-14T18:23:19.665Z,36.50
2017-08-14T18:25:47.179Z,36.60
2017-08-14T18:28:14.747Z,36.80
2017-08-14T18:30:42.240Z,36.90
2017-08-14T18:33:10.990Z,37.10
2017-08-14T18:35:38.549Z,37.20
2017-08-14T18:38:06.143Z,37.40
2017-08-14T18:40:33.666Z,37.60
2017-08-14T18:43:01.182Z,38.00
2017-08-14T18:45:28.790Z,38.20
2017-08-14T18:47:56.343Z,38.40
2017-08-14T18:50:24.791Z,38.70
2017-08-14T18:52:52.289Z,38.80
2017-08-14T18:55:19.811Z,39.00
2017-08-14T18:57:47.370Z,39.10
2017-08-14T19:00:14.946Z,39.30
2017-08-14T19:02:42.509Z,40.10
2017-08-14T19:05:10.095Z,39.70
2017-08-14T19:07:38.257Z,39.90
2017-08-14T19:10:05.306Z,40.10
2017-08-14T19:12:32.876Z,40.20
2017-08-14T19:15:00.443Z,40.20
2017-08-14T19:17:28.009Z,40.00
2017-08-14T19:19:55.568Z,40.00
2017-08-14T19:22:23.150Z,40.00
2017-08-14T19:24:50.652Z,40.90
2017-08-14T19:27:18.192Z,40.20
2017-08-14T19:29:46.776Z,40.40
2017-08-14T19:32:14.594Z,40.50
2017-08-14T19:34:42.243Z,41.30
2017-08-14T19:37:09.939Z,40.80
2017-08-14T19:39:37.615Z,40.90
2017-08-14T19:42:05.230Z,40.90
2017-08-14T19:44:32.931Z,40.90
2017-08-14T19:47:01.535Z,41.10
2017-08-14T19:49:30.158Z,41.10
2017-08-14T19:51:58.048Z,41.30
2017-08-14T19:54:25.825Z,41.40
2017-08-14T19:56:53.528Z,41.30
2017-08-14T19:59:21.235Z,41.40
2017-08-14T20:01:48.858Z,41.30
2017-08-14T20:04:16.470Z,41.60
2017-08-14T20:06:45.169Z,41.30
2017-08-14T20:09:12.877Z,41.50
2017-08-14T20:11:40.535Z,41.40
2017-08-14T20:14:08.241Z,41.40
2017-08-14T20:16:35.899Z,41.30
2017-08-14T20:19:03.468Z,41.40
2017-08-14T20:21:31.017Z,41.70
2017-08-14T20:23:58.530Z,41.80
2017-08-14T20:26:26.105Z,41.90
2017-08-14T20:28:53.652Z,41.80
2017-08-14T20:31:21.207Z,41.50
2017-08-14T20:33:48.741Z,41.70
2017-08-14T20:36:16.705Z,41.70
2017-08-14T20:38:44.203Z,41.70
2017-08-14T20:41:11.715Z,41.80
2017-08-14T20:43:39.280Z,41.80
2017-08-14T20:46:06.870Z,41.90
2017-08-14T20:48:34.415Z,42.00
2017-08-14T20:51:01.915Z,42.00
2017-08-14T20:53:29.452Z,42.10
2017-08-14T20:55:56.979Z,42.00
2017-08-14T20:58:24.577Z,42.00
2017-08-14T21:00:52.096Z,41.80
2017-08-14T21:03:19.632Z,41.90
2017-08-14T21:05:47.183Z,41.90
2017-08-14T21:08:14.734Z,41.90
2017-08-14T21:10:42.345Z,42.00
2017-08-14T21:13:09.861Z,42.10
2017-08-14T21:15:37.372Z,42.00
2017-08-14T21:18:04.917Z,42.10
2017-08-14T21:20:32.404Z,42.20
2017-08-14T21:22:59.940Z,42.40
2017-08-14T21:25:27.468Z,42.40
2017-08-14T21:27:54.982Z,42.30
2017-08-14T21:30:22.565Z,42.40
2017-08-14T21:32:50.088Z,42.40
2017-08-14T21:35:17.616Z,42.60
2017-08-14T21:37:45.180Z,42.50
2017-08-14T21:40:12.752Z,42.60
2017-08-14T21:42:40.245Z,42.40
2017-08-14T21:45:07.773Z,42.50
2017-08-14T21:47:35.341Z,42.50
2017-08-14T21:50:02.929Z,42.70
2017-08-14T21:52:30.476Z,42.80
2017-08-14T21:54:57.974Z,42.90
2017-08-14T21:57:25.537Z,42.70
2017-08-14T21:59:53.056Z,42.90
2017-08-14T22:02:20.608Z,43.00
2017-08-14T22:04:48.130Z,42.90
2017-08-14T22:07:16.250Z,43.00
2017-08-14T22:09:43.847Z,43.00
2017-08-14T22:12:11.368Z,42.90
2017-08-14T22:14:38.856Z,42.80
2017-08-14T22:17:06.921Z,42.80
2017-08-14T22:19:34.451Z,43.00
2017-08-14T22:22:02.006Z,43.10
2017-08-14T22:24:29.513Z,43.20
2017-08-14T22:26:57.934Z,43.30
2017-08-14T22:29:25.451Z,43.40
2017-08-14T22:31:53.698Z,43.40
2017-08-14T22:34:21.270Z,43.30
2017-08-14T22:36:48.769Z,43.30
2017-08-14T22:39:16.311Z,43.30
2017-08-14T22:41:43.841Z,43.50
2017-08-14T22:44:11.398Z,43.50
2017-08-14T22:46:38.931Z,43.50
2017-08-14T22:49:06.428Z,43.50
2017-08-14T22:51:33.968Z,43.70
2017-08-14T22:54:01.457Z,43.90
2017-08-14T22:56:29.003Z,43.90
2017-08-14T22:58:56.500Z,44.00
2017-08-14T23:01:24.075Z,44.20
2017-08-14T23:03:51.598Z,44.30
2017-08-14T23:06:19.098Z,44.30
2017-08-14T23:08:46.632Z,44.50
2017-08-14T23:11:14.116Z,44.70
2017-08-14T23:13:41.685Z,44.70
2017-08-14T23:16:09.186Z,44.90
2017-08-14T23:18:36.706Z,45.60
2017-08-14T23:21:04.253Z,45.10
2017-08-14T23:23:31.754Z,45.20
2017-08-14T23:25:59.272Z,45.20
2017-08-14T23:28:26.814Z,45.30
2017-08-14T23:30:54.334Z,45.30
2017-08-14T23:33:21.890Z,45.50
2017-08-14T23:35:49.435Z,45.60
2017-08-14T23:38:17.559Z,45.70
2017-08-14T23:40:45.106Z,45.80
2017-08-14T23:43:12.640Z,45.80
2017-08-14T23:45:40.242Z,45.90
2017-08-14T23:48:08.862Z,46.00
2017-08-14T23:50:36.364Z,46.00
2017-08-14T23:53:03.912Z,46.00
2017-08-14T23:55:31.432Z,46.00
2017-08-14T23:57:58.922Z,46.20
